Terminal Aerodrome Forecast
Issued by NWS Boston, MA

Home | Current Version | Previous Version | Text Only | Print | Product List | Glossary On
Versions: 1 2 3 4 5 6 7 8 9 10 11 12 13 14 15 16 17 18 19 20
000
FTUS41 KBOX 050901 AAA
TAFBDL
TAF AMD
KBDL 050901Z 0509/0612 04004KT P6SM OVC040
     FM050930 02004KT 1SM -SN OVC012
     FM051400 VRB03KT 5SM BR VCSH OVC015
     FM051700 26004KT P6SM BKN015
     FM052000 25005KT P6SM SCT015
     FM060700 31006KT P6SM SCT250=

USA.gov is the U.S. government's official web portal to all federal, state and local government web resources and services.